Impacts TAF Board
For situational awareness. Not to be used for flight planning purposes.
IDs:

KMDT - Harrisburg Intl, PA, US

Issued at 1601 UTC 03 Dec 2021
Updated at 1625 UTC 03 Dec 2021
Potential Impact None Slight Moderate High
Time1556Z 03/17Z 03/18Z 03/19Z 03/20Z 03/21Z 03/22Z 03/23Z 04/00Z 04/01Z 04/02Z 04/03Z 04/04Z 04/05Z>>
Type OBS PRVL PRVL PRVL PRVL PRVL PRVL PRVL PRVL PRVL PRVL PRVL PRVL PRVL
VIS 10 >6 >6 >6 >6 >6 >6 >6 >6 >6 >6 >6 >6 >6
CIG 47 45 45 45 45 45 45 90 90 90 90 90 90 90
Cover BKN BKN BKN BKN BKN BKN BKN OVC OVC OVC OVC OVC OVC OVC
FltCat VFR VFR VFR VFR VFR VFR VFR VFR VFR VFR VFR VFR VFR VFR
WX -- -- -- -- -- -- -- -- -- -- -- -- -- --
WDir 300 310 310 310 310 310 310 VRB VRB VRB VRB VRB VRB VRB
WSpd 11 11 11 11 11 11 11 3 3 3 3 3 3 3
WGst -- 16 16 16 16 16 16 -- -- -- -- -- -- --
WSHgt -- -- -- -- -- -- -- -- -- -- -- -- -- --
WSDir -- -- -- -- -- -- -- -- -- -- -- -- -- --
WSSpd -- -- -- -- -- -- -- -- -- -- -- -- -- --
Raw TAF
KMDT 031601Z 0316/0412 31011G16KT P6SM BKN045 BKN200
  FM032300 VRB03KT P6SM OVC090


Raw METAR
KMDT 031556Z 30011KT 10SM BKN047 BKN200 08/M02 A3003 RMK AO2 SLP172 T00831022
KMDT 031456Z 31010KT 10SM SCT044 BKN190 08/M02 A3003 RMK AO2 SLP170 T00781022 52026
KMDT 031356Z 30010KT 10SM FEW045 SCT190 07/M02 A3000 RMK AO2 SLP160 T00721017

METAR Board
Radar Display
Forecast Discussion
For situational awareness. Not to be used for flight planning purposes.